Jackson Evers International Airport
KJAN : now visible

Airfield :











YOU CAN JOIN US ON...

 
LOGIN :

Register | Disclaimer

   EN    FR    IT 

 









Legend :    VFR   Marginal VFR   IFR   Intensive IFR   Very Intensive IFR
Visi :
Ceiling :
>= 8 km
>= 3000ft
5 to 8 km
1000 to 3000 ft
1500m to 5 km
500 to 1000 ft
800 to 1500m
200 to 500 ft
< 800m
< 200 ft
Symbols :   Thunderstorms  Fog  Heavy snow  Heavy precipitations  Wind > 20 kt






- Airport Elevation : 346 ft
- IATA code : JAN


KJAN - Jackson Evers International

CURRENT METAR :
  • 080654Z 36005KT 3SM BR OVC003 09/07 A3018 RMK AO2 SLP220 T00890072 $

EXPIRED METARs :
  • 080554Z 34003KT 4SM BR OVC004 08/07 A3019 RMK AO2 SLP224 T00830067 10111 20072 401440072 58015 $
  • 080520Z 34003KT 4SM BR OVC004 08/07 A3020 RMK AO2 T00830067 $
  • 080454Z 34004KT 4SM BR BKN005 OVC033 08/06 A3021 RMK AO2 SLP230 T00780061 $

TAF KJAN
Valid from the 08 at 06:00 until the 09 at 06:00 UTC


080532Z 0806/0906 02003KT 3SM BR OVC004
FM081400 16008KT P6SM BKN015 OVC025
FM082200 16007KT P6SM OVC040



MET'MAP, your aeronautical weather chart ! - Copyright ORBIFLY December 2007 - Disclaimer

ORBIFLY MET'MAP TEAM :

Programming & Development : Alexandra Zaïnal
Concept & original design : Baudouin d'Aumeries
Assistance for programming : Marc-Olivier Méhu
Technical & hardware support : Manuel Goepfert

Contact : metmap@orbifly.com




SOURCES & CREDITS :

   NOAA       Earth
Advisory